Time;durP1;ratioP1;P1;durP2;ratioP2;P2;SDS_P1;SDS_P2;PMS_P1;PMS_P2;Temp;Humidity;BMP_temperature;BMP_pressure;BME280_temperature;BME280_humidity;BME280_pressure;Samples;Min_cycle;Max_cycle;Signal;HPM_P1;HPM_P2
2023/08/07 00:00:40;;;;;;;14.45;5.65;;;;;;;12.67;100.00;100580.66;6215080;23;20016;-78
2023/08/07 00:03:07;;;;;;;19.38;5.20;;;;;;;12.63;100.00;100580.16;6214813;23;20493;-77
2023/08/07 00:05:33;;;;;;;20.17;6.68;;;;;;;12.63;100.00;100579.34;6215768;23;20112;-77
2023/08/07 00:08:00;;;;;;;17.33;6.50;;;;;;;12.65;100.00;100576.56;6215101;23;20095;-78
2023/08/07 00:10:27;;;;;;;14.93;6.50;;;;;;;12.63;100.00;100574.09;6215832;23;20047;-77
2023/08/07 00:12:53;;;;;;;19.20;7.28;;;;;;;12.63;100.00;100576.72;6216920;23;20024;-77
2023/08/07 00:15:21;;;;;;;17.75;7.55;;;;;;;12.63;100.00;100589.84;6216832;23;20048;-80
2023/08/07 00:17:48;;;;;;;19.83;6.43;;;;;;;12.61;100.00;100582.13;6217574;23;20024;-79
2023/08/07 00:20:15;;;;;;;17.67;6.28;;;;;;;12.60;100.00;100577.06;6217498;23;20087;-78
2023/08/07 00:22:41;;;;;;;15.90;6.47;;;;;;;12.56;100.00;100579.19;6218165;23;20073;-78
2023/08/07 00:25:11;;;;;;;17.48;6.85;;;;;;;12.51;100.00;100581.50;6218012;23;20075;-78
2023/08/07 00:27:38;;;;;;;14.05;5.45;;;;;;;12.51;100.00;100596.44;6218880;23;20300;-77
2023/08/07 00:30:05;;;;;;;21.70;6.07;;;;;;;12.47;100.00;100584.66;6218989;23;20052;-76
2023/08/07 00:32:33;;;;;;;24.27;6.00;;;;;;;12.48;100.00;100591.53;6216151;23;20031;-77
2023/08/07 00:35:00;;;;;;;15.02;6.40;;;;;;;12.43;100.00;100592.03;6215246;23;20055;-77
2023/08/07 00:37:27;;;;;;;15.23;5.80;;;;;;;12.41;100.00;100585.31;6215471;23;20104;-77
2023/08/07 00:39:53;;;;;;;16.98;6.60;;;;;;;12.41;100.00;100590.56;6215362;23;20052;-79
2023/08/07 00:42:20;;;;;;;16.10;6.70;;;;;;;12.37;100.00;100584.84;6215304;23;20356;-77
2023/08/07 00:44:46;;;;;;;18.73;7.88;;;;;;;12.33;100.00;100599.28;6215125;23;20024;-78
2023/08/07 00:47:13;;;;;;;13.55;6.40;;;;;;;12.26;100.00;100596.53;6215276;23;20099;-78
2023/08/07 00:49:42;;;;;;;15.77;5.97;;;;;;;12.25;100.00;100600.13;6216925;23;20346;-78
2023/08/07 00:52:08;;;;;;;15.32;6.55;;;;;;;12.29;100.00;100598.78;6216669;23;20531;-77
2023/08/07 00:54:36;;;;;;;12.07;6.30;;;;;;;12.32;100.00;100602.88;6215911;23;20058;-78
2023/08/07 00:57:10;;;;;;;17.45;5.75;;;;;;;12.34;100.00;100605.34;6216106;23;20063;-78
2023/08/07 00:59:37;;;;;;;12.05;6.40;;;;;;;12.30;100.00;100610.91;6217601;23;20091;-78
2023/08/07 01:02:04;;;;;;;13.60;6.43;;;;;;;12.39;100.00;100606.47;6188215;23;20025;-77
2023/08/07 01:04:32;;;;;;;23.63;7.78;;;;;;;12.45;100.00;100612.88;6186247;23;20507;-78
2023/08/07 01:07:00;;;;;;;23.42;8.90;;;;;;;12.44;100.00;100609.41;6186515;23;20063;-78
2023/08/07 01:09:27;;;;;;;21.88;8.52;;;;;;;12.41;100.00;100603.69;6185608;23;20029;-79
2023/08/07 01:12:03;;;;;;;18.58;7.38;;;;;;;12.48;100.00;100607.28;6184026;23;20017;-77
2023/08/07 01:14:37;;;;;;;17.33;7.93;;;;;;;12.54;100.00;100612.69;6184703;23;20025;-77
2023/08/07 01:17:08;;;;;;;24.08;7.55;;;;;;;12.59;100.00;100614.78;6185023;23;20053;-79
2023/08/07 01:19:36;;;;;;;16.17;5.93;;;;;;;12.53;100.00;100607.59;6187310;23;20035;-79
2023/08/07 01:22:08;;;;;;;19.38;6.25;;;;;;;12.54;100.00;100609.22;6187402;23;20383;-78
2023/08/07 01:24:35;;;;;;;15.90;5.65;;;;;;;12.56;100.00;100609.88;6187638;23;20021;-78
2023/08/07 01:27:14;;;;;;;11.05;5.53;;;;;;;12.66;100.00;100607.88;6187820;23;20048;-78
2023/08/07 01:29:47;;;;;;;18.52;6.40;;;;;;;12.64;100.00;100607.22;6187470;23;20027;-78
2023/08/07 01:32:20;;;;;;;20.13;6.38;;;;;;;12.67;100.00;100608.69;6187767;23;20052;-79
2023/08/07 01:34:49;;;;;;;20.33;7.15;;;;;;;12.62;100.00;100615.28;6185140;23;20484;-78
2023/08/07 01:37:18;;;;;;;20.10;7.13;;;;;;;12.66;100.00;100615.75;6184687;23;20543;-78
2023/08/07 01:39:47;;;;;;;18.30;6.47;;;;;;;12.71;100.00;100617.88;6185325;23;20362;-78
2023/08/07 01:42:14;;;;;;;14.30;5.53;;;;;;;12.77;100.00;100611.91;6184743;23;20052;-77
2023/08/07 01:44:40;;;;;;;25.13;7.05;;;;;;;12.77;100.00;100609.28;6185645;23;20053;-79
2023/08/07 01:47:07;;;;;;;18.40;5.78;;;;;;;12.77;100.00;100617.16;6185795;23;20052;-77
2023/08/07 01:49:33;;;;;;;19.60;6.43;;;;;;;12.79;100.00;100609.94;6187717;23;20059;-79
2023/08/07 01:52:00;;;;;;;13.52;6.20;;;;;;;12.81;100.00;100611.41;6187245;23;20044;-79
2023/08/07 01:54:28;;;;;;;17.85;6.15;;;;;;;12.87;100.00;100615.97;6187938;23;20068;-80
2023/08/07 01:56:55;;;;;;;15.02;6.50;;;;;;;12.83;100.00;100609.44;6187690;23;20025;-79
2023/08/07 01:59:21;;;;;;;18.38;5.70;;;;;;;12.87;100.00;100618.59;6187386;23;20092;-80
2023/08/07 02:01:48;;;;;;;14.90;6.13;;;;;;;12.83;100.00;100601.56;6214996;23;20020;-79
2023/08/07 02:04:14;;;;;;;13.77;5.85;;;;;;;12.85;100.00;100617.97;6217904;23;20189;-79
2023/08/07 02:06:41;;;;;;;18.80;6.82;;;;;;;12.85;100.00;100610.09;6218608;23;20456;-80
2023/08/07 02:09:07;;;;;;;24.75;6.38;;;;;;;12.89;100.00;100616.63;6217178;23;20099;-78
2023/08/07 02:11:35;;;;;;;15.80;5.40;;;;;;;12.92;100.00;100607.59;6217481;23;20119;-79
2023/08/07 02:14:02;;;;;;;15.13;5.57;;;;;;;12.90;100.00;100626.16;6217670;23;20048;-79
2023/08/07 02:16:29;;;;;;;15.10;5.25;;;;;;;12.89;100.00;100624.50;6218191;23;20021;-79
2023/08/07 02:18:56;;;;;;;16.65;7.30;;;;;;;12.90;100.00;100633.22;6216454;23;20031;-80
2023/08/07 02:21:22;;;;;;;12.50;5.18;;;;;;;12.85;100.00;100633.72;6216247;23;20488;-77
2023/08/07 02:23:49;;;;;;;17.85;6.07;;;;;;;12.75;100.00;100627.88;6219517;23;20360;-78
2023/08/07 02:26:15;;;;;;;15.23;5.32;;;;;;;12.69;100.00;100640.84;6215498;23;20056;-79
2023/08/07 02:28:43;;;;;;;15.80;5.47;;;;;;;12.62;100.00;100640.72;6214904;23;20056;-79
2023/08/07 02:31:10;;;;;;;12.93;5.25;;;;;;;12.48;100.00;100655.34;6214509;23;20410;-79
2023/08/07 02:33:37;;;;;;;17.95;5.55;;;;;;;12.36;100.00;100656.66;6219390;23;20063;-80
2023/08/07 02:36:03;;;;;;;15.57;5.47;;;;;;;12.34;100.00;100663.06;6220548;23;20425;-79
2023/08/07 02:38:30;;;;;;;15.65;5.57;;;;;;;12.27;100.00;100657.69;6217881;23;20100;-76
2023/08/07 02:40:56;;;;;;;21.05;6.38;;;;;;;12.24;100.00;100658.03;6217394;23;20090;-79
2023/08/07 02:43:23;;;;;;;18.35;5.47;;;;;;;12.23;100.00;100657.22;6216414;23;20496;-77
2023/08/07 02:45:51;;;;;;;14.93;5.70;;;;;;;12.26;100.00;100666.56;6217526;23;20082;-77
2023/08/07 02:48:18;;;;;;;14.20;6.13;;;;;;;12.24;100.00;100658.84;6227972;23;20029;-76
2023/08/07 02:50:44;;;;;;;18.40;5.85;;;;;;;12.24;100.00;100664.09;6227838;23;20017;-78
2023/08/07 02:53:12;;;;;;;20.40;5.63;;;;;;;12.27;100.00;100653.25;6228169;23;20028;-78
2023/08/07 02:55:39;;;;;;;20.20;6.38;;;;;;;12.24;100.00;100650.16;6224380;23;20021;-77
2023/08/07 02:58:05;;;;;;;14.82;6.00;;;;;;;12.25;100.00;100649.16;6213208;23;20052;-78
2023/08/07 03:00:32;;;;;;;16.30;5.50;;;;;;;12.27;100.00;100649.81;6212972;23;20052;-77
2023/08/07 03:03:00;;;;;;;20.70;6.85;;;;;;;12.33;100.00;100648.31;6212781;23;20099;-77
2023/08/07 03:05:26;;;;;;;19.45;5.85;;;;;;;12.27;100.00;100653.25;6214054;23;20100;-77
2023/08/07 03:07:53;;;;;;;18.92;5.95;;;;;;;12.32;100.00;100641.41;6213503;23;20074;-77
2023/08/07 03:10:20;;;;;;;21.60;6.07;;;;;;;12.33;100.00;100640.44;6212687;23;20056;-77
2023/08/07 03:12:47;;;;;;;17.75;6.47;;;;;;;12.30;100.00;100647.66;6212689;23;20021;-77
2023/08/07 03:15:13;;;;;;;19.55;8.23;;;;;;;12.29;100.00;100646.03;6213094;23;20052;-77
2023/08/07 03:17:40;;;;;;;16.13;5.60;;;;;;;12.34;100.00;100652.56;6219474;23;20048;-76
2023/08/07 03:20:10;;;;;;;15.95;6.30;;;;;;;12.36;100.00;100642.72;6218513;23;20024;-78
2023/08/07 03:22:37;;;;;;;20.13;6.38;;;;;;;12.38;100.00;100641.56;6213670;23;20091;-78
2023/08/07 03:25:05;;;;;;;13.68;7.03;;;;;;;12.43;100.00;100641.06;6213709;23;20047;-77
2023/08/07 03:27:31;;;;;;;19.90;7.13;;;;;;;12.45;100.00;100641.72;6227666;23;20024;-76
2023/08/07 03:29:58;;;;;;;19.15;7.03;;;;;;;12.45;100.00;100644.34;6214220;23;20020;-79
2023/08/07 03:32:24;;;;;;;28.92;7.28;;;;;;;12.46;100.00;100638.13;6216545;23;20055;-77
2023/08/07 03:34:51;;;;;;;17.45;6.85;;;;;;;12.48;100.00;100636.16;6215854;23;20063;-79
2023/08/07 03:37:19;;;;;;;18.83;6.68;;;;;;;12.50;100.00;100642.06;6215330;23;20787;-76
2023/08/07 03:39:47;;;;;;;22.95;7.13;;;;;;;12.48;100.00;100641.41;6212729;23;20024;-78
2023/08/07 03:42:15;;;;;;;14.30;5.95;;;;;;;12.48;100.00;100644.03;6213919;23;20025;-76
2023/08/07 03:44:41;;;;;;;17.42;6.63;;;;;;;12.46;100.00;100646.00;6214462;23;20296;-77
2023/08/07 03:47:08;;;;;;;13.98;5.70;;;;;;;12.38;100.00;100653.88;6213904;23;20056;-77
2023/08/07 03:49:35;;;;;;;12.75;5.80;;;;;;;12.32;100.00;100659.78;6214380;23;20044;-80
2023/08/07 03:52:01;;;;;;;15.80;5.88;;;;;;;12.32;100.00;100665.03;6213660;23;20091;-80
2023/08/07 03:54:29;;;;;;;23.63;6.03;;;;;;;12.35;100.00;100668.16;6214720;23;20420;-78
2023/08/07 03:56:56;;;;;;;17.60;5.80;;;;;;;12.26;100.00;100671.78;6215335;23;20099;-78
2023/08/07 03:59:22;;;;;;;10.50;5.53;;;;;;;12.27;100.00;100671.63;6213817;23;20052;-80
2023/08/07 04:01:49;;;;;;;11.32;5.72;;;;;;;12.27;100.00;100670.81;6213366;23;20044;-79
2023/08/07 04:04:16;;;;;;;13.65;5.43;;;;;;;12.19;100.00;100671.63;6214394;23;20099;-78
2023/08/07 04:06:43;;;;;;;11.55;5.50;;;;;;;12.18;100.00;100670.00;6214751;23;20099;-78
2023/08/07 04:09:10;;;;;;;14.85;6.32;;;;;;;12.15;100.00;100680.00;6213412;23;20429;-76
2023/08/07 04:11:38;;;;;;;12.52;5.72;;;;;;;12.12;100.00;100678.53;6208397;23;20020;-78
2023/08/07 04:14:05;;;;;;;17.60;7.05;;;;;;;12.04;100.00;100675.91;6134410;23;20053;-81
2023/08/07 04:16:32;;;;;;;14.02;6.45;;;;;;;12.00;100.00;100679.81;6154734;23;20064;-80
2023/08/07 04:18:58;;;;;;;15.88;6.35;;;;;;;12.05;100.00;100674.09;6155764;23;20387;-80
2023/08/07 04:21:25;;;;;;;13.82;6.15;;;;;;;12.02;100.00;100669.19;6155739;23;20096;-78
2023/08/07 04:23:52;;;;;;;16.45;8.48;;;;;;;12.06;100.00;100673.09;6155525;23;20068;-80
2023/08/07 04:26:18;;;;;;;17.73;8.93;;;;;;;12.13;100.00;100680.16;6155584;23;20104;-78
2023/08/07 04:28:46;;;;;;;18.05;9.88;;;;;;;12.21;100.00;100671.47;6155398;23;20068;-78
2023/08/07 04:31:13;;;;;;;15.85;9.18;;;;;;;12.18;100.00;100667.38;6154922;23;20100;-80
2023/08/07 04:33:40;;;;;;;26.90;9.73;;;;;;;12.28;100.00;100669.81;6155828;23;20033;-81
2023/08/07 04:36:06;;;;;;;28.63;9.57;;;;;;;12.28;100.00;100675.06;6155113;23;20033;-78
2023/08/07 04:38:33;;;;;;;20.63;8.90;;;;;;;12.29;100.00;100669.63;6155188;23;20021;-79
2023/08/07 04:41:00;;;;;;;19.85;8.30;;;;;;;12.36;100.00;100687.34;6154234;23;20056;-77
2023/08/07 04:43:27;;;;;;;20.33;9.75;;;;;;;12.33;100.00;100677.16;6154680;23;20048;-79
2023/08/07 04:45:55;;;;;;;33.40;9.43;;;;;;;12.41;100.00;100682.41;6155808;23;20029;-79
2023/08/07 04:48:25;;;;;;;19.02;7.90;;;;;;;12.42;100.00;100684.88;6154588;23;20068;-78
2023/08/07 04:50:51;;;;;;;19.65;8.50;;;;;;;12.47;100.00;100681.75;6157606;23;20025;-78
2023/08/07 04:53:18;;;;;;;16.17;7.90;;;;;;;12.48;100.00;100681.59;6156236;23;20518;-78
2023/08/07 04:55:44;;;;;;;17.15;7.07;;;;;;;12.52;100.00;100671.56;6155490;23;20410;-78
2023/08/07 04:58:11;;;;;;;15.50;6.80;;;;;;;12.54;100.00;100680.09;6155040;23;20025;-80
2023/08/07 05:00:38;;;;;;;20.85;7.70;;;;;;;12.62;100.00;100682.72;6166541;23;20429;-79
2023/08/07 05:03:06;;;;;;;11.98;6.45;;;;;;;12.62;100.00;100682.72;6185395;23;20052;-78
2023/08/07 05:05:32;;;;;;;11.23;6.43;;;;;;;12.60;100.00;100676.81;6184976;23;20060;-78
2023/08/07 05:07:59;;;;;;;18.60;6.47;;;;;;;12.60;100.00;100674.19;6185417;23;20358;-79
2023/08/07 05:10:26;;;;;;;13.52;7.03;;;;;;;12.66;100.00;100681.38;6184736;23;20025;-79
2023/08/07 05:12:55;;;;;;;20.75;6.60;;;;;;;12.64;100.00;100686.00;6184813;23;20330;-80
2023/08/07 05:15:21;;;;;;;18.05;6.15;;;;;;;12.62;100.00;100677.47;6184483;23;20338;-79
2023/08/07 05:17:48;;;;;;;14.77;5.45;;;;;;;12.64;100.00;100686.00;6186612;23;20028;-78
2023/08/07 05:20:16;;;;;;;14.90;6.20;;;;;;;12.66;100.00;100681.38;6186550;23;20056;-77
2023/08/07 05:22:43;;;;;;;21.73;5.95;;;;;;;12.64;100.00;100672.88;6186488;23;20021;-78
2023/08/07 05:25:11;;;;;;;18.67;6.28;;;;;;;12.67;100.00;100675.16;6185816;23;20048;-79
2023/08/07 05:27:37;;;;;;;15.63;5.80;;;;;;;12.65;100.00;100663.19;6186104;23;20462;-79
2023/08/07 05:30:05;;;;;;;18.77;5.55;;;;;;;12.69;100.00;100670.56;6187677;23;20048;-80
2023/08/07 05:32:32;;;;;;;15.35;5.35;;;;;;;12.64;100.00;100683.38;6187391;23;20056;-79
2023/08/07 05:34:59;;;;;;;16.75;7.50;;;;;;;12.63;100.00;100679.91;6187234;23;20021;-80
2023/08/07 05:37:27;;;;;;;11.70;5.35;;;;;;;12.67;100.00;100674.34;6186852;23;20053;-79
2023/08/07 05:39:53;;;;;;;14.43;5.90;;;;;;;12.75;100.00;100685.63;6185807;23;20057;-78
2023/08/07 05:42:20;;;;;;;19.30;5.85;;;;;;;12.68;100.00;100687.28;6185574;23;20097;-78
2023/08/07 05:44:47;;;;;;;9.85;5.22;;;;;;;12.70;100.00;100690.56;6185733;23;20493;-76
2023/08/07 05:47:14;;;;;;;15.52;5.32;;;;;;;12.73;100.00;100695.50;6187961;23;20021;-80
2023/08/07 05:49:41;;;;;;;15.88;5.47;;;;;;;12.73;100.00;100698.13;6189603;23;20039;-78
2023/08/07 05:52:08;;;;;;;16.75;6.50;;;;;;;12.76;100.00;100699.59;6186519;23;20048;-79
2023/08/07 05:54:36;;;;;;;20.05;5.50;;;;;;;12.75;100.00;100693.50;6188715;23;20025;-78
2023/08/07 05:57:04;;;;;;;10.80;4.45;;;;;;;12.75;100.00;100697.94;6188645;23;20080;-79
2023/08/07 05:59:31;;;;;;;18.35;5.22;;;;;;;12.70;100.00;100703.69;6191047;23;20029;-79
2023/08/07 06:01:57;;;;;;;15.80;5.25;;;;;;;12.67;100.00;100711.91;6195528;23;20021;-79
2023/08/07 06:04:24;;;;;;;18.40;5.88;;;;;;;12.69;100.00;100699.44;6201583;23;20075;-80
2023/08/07 06:06:51;;;;;;;12.23;5.35;;;;;;;12.61;100.00;100704.69;6202454;23;20025;-79
2023/08/07 06:09:17;;;;;;;12.57;5.43;;;;;;;12.59;100.00;100697.00;6201733;23;20025;-80
2023/08/07 06:11:45;;;;;;;10.93;5.20;;;;;;;12.62;100.00;100708.97;6195303;23;20044;-78
2023/08/07 06:14:12;;;;;;;19.00;5.88;;;;;;;12.54;100.00;100711.59;6186414;23;20067;-77
2023/08/07 06:16:38;;;;;;;13.13;5.38;;;;;;;12.54;100.00;100708.97;6187437;23;20063;-77
2023/08/07 06:19:05;;;;;;;12.60;5.30;;;;;;;12.54;100.00;100712.41;6189051;23;20358;-79
2023/08/07 06:21:32;;;;;;;8.82;4.82;;;;;;;12.46;100.00;100709.81;6190807;23;20453;-80
2023/08/07 06:23:58;;;;;;;15.13;5.20;;;;;;;12.52;100.00;100714.38;6187604;23;20032;-79
2023/08/07 06:26:25;;;;;;;10.98;5.65;;;;;;;12.45;100.00;100712.59;6186766;23;20056;-79
2023/08/07 06:28:53;;;;;;;9.98;5.10;;;;;;;12.30;100.00;100713.25;6187216;23;20087;-80
2023/08/07 06:31:19;;;;;;;15.40;5.80;;;;;;;12.29;100.00;100718.66;6185780;23;20366;-79
2023/08/07 06:33:46;;;;;;;11.98;5.53;;;;;;;12.30;100.00;100715.88;6188908;23;20059;-79
2023/08/07 06:36:13;;;;;;;15.65;5.70;;;;;;;12.27;100.00;100724.09;6186914;23;20070;-80
2023/08/07 06:38:39;;;;;;;11.18;5.40;;;;;;;12.34;100.00;100728.66;6187672;23;20346;-80
2023/08/07 06:41:06;;;;;;;16.45;5.72;;;;;;;12.38;100.00;100722.94;6187504;23;20064;-82
2023/08/07 06:43:32;;;;;;;18.13;6.78;;;;;;;12.36;100.00;100732.75;6187298;23;20125;-80
2023/08/07 06:46:00;;;;;;;14.68;7.18;;;;;;;12.45;100.00;100741.47;6188113;23;20095;-79
2023/08/07 06:48:27;;;;;;;18.25;7.07;;;;;;;12.53;100.00;100738.84;6187174;23;20056;-79
2023/08/07 06:50:54;;;;;;;14.63;6.75;;;;;;;12.57;100.00;100753.25;6190652;23;20353;-81
2023/08/07 06:53:21;;;;;;;11.85;6.30;;;;;;;12.39;100.00;100745.56;6189384;23;20486;-82
2023/08/07 06:55:47;;;;;;;15.05;6.75;;;;;;;12.35;100.00;100744.25;6186354;23;20027;-80
2023/08/07 06:58:20;;;;;;;22.23;7.30;;;;;;;12.28;100.00;100749.34;6185582;23;20167;-83
2023/08/07 07:00:46;;;;;;;22.13;7.45;;;;;;;12.24;100.00;100748.03;6184000;23;20059;-76
2023/08/07 07:03:15;;;;;;;18.83;7.40;;;;;;;12.27;100.00;100763.47;6183618;23;20478;-79
2023/08/07 07:05:42;;;;;;;16.15;8.18;;;;;;;12.28;100.00;100754.59;6185701;23;20437;-80
2023/08/07 07:08:09;;;;;;;22.42;7.82;;;;;;;12.28;100.00;100757.22;6186713;23;20029;-77
2023/08/07 07:10:36;;;;;;;21.40;7.05;;;;;;;12.21;100.00;100774.59;6187508;23;20025;-78
2023/08/07 07:13:03;;;;;;;15.85;6.47;;;;;;;12.24;100.00;100763.78;6184990;23;20060;-78
2023/08/07 07:15:30;;;;;;;17.85;7.63;;;;;;;12.28;100.00;100769.53;6186376;23;20021;-79
2023/08/07 07:17:57;;;;;;;21.92;7.90;;;;;;;12.30;100.00;100765.72;6185253;23;20032;-78
2023/08/07 07:20:26;;;;;;;18.75;7.63;;;;;;;12.33;100.00;100774.25;6184398;23;20017;-78
2023/08/07 07:22:53;;;;;;;14.20;6.40;;;;;;;12.43;100.00;100772.28;6156723;23;20067;-81
2023/08/07 07:25:19;;;;;;;17.17;6.88;;;;;;;12.46;100.00;100785.09;6159704;23;20025;-80
2023/08/07 07:27:46;;;;;;;16.83;6.25;;;;;;;12.49;100.00;100787.38;6157548;23;20052;-81
2023/08/07 07:30:13;;;;;;;20.02;6.55;;;;;;;12.53;100.00;100793.94;6159495;23;20061;-79
2023/08/07 07:32:40;;;;;;;18.85;6.65;;;;;;;12.59;100.00;100794.13;6158915;23;20036;-79
2023/08/07 07:35:07;;;;;;;13.32;6.20;;;;;;;12.58;100.00;100799.53;6158343;23;20026;-80
2023/08/07 07:37:35;;;;;;;15.95;5.95;;;;;;;12.67;100.00;100803.78;6159270;23;20049;-79
2023/08/07 07:40:02;;;;;;;19.40;5.68;;;;;;;12.67;100.00;100795.91;6159116;23;20022;-79
2023/08/07 07:42:29;;;;;;;15.27;5.38;;;;;;;12.82;100.00;100798.66;6158884;23;20021;-79
2023/08/07 07:44:56;;;;;;;20.75;7.35;;;;;;;12.78;100.00;100807.88;6158666;23;20061;-79
2023/08/07 07:47:23;;;;;;;15.48;5.78;;;;;;;12.84;100.00;100797.53;6159089;23;20033;-80
2023/08/07 07:49:49;;;;;;;14.70;6.05;;;;;;;12.95;100.00;100796.34;6159764;23;20026;-79
2023/08/07 07:52:16;;;;;;;17.60;5.90;;;;;;;13.01;100.00;100808.81;6158900;23;20036;-78
2023/08/07 07:54:47;;;;;;;14.85;6.18;;;;;;;13.21;100.00;100810.13;6158513;23;20081;-81
2023/08/07 07:57:14;;;;;;;16.30;7.55;;;;;;;13.30;100.00;100818.78;6161211;23;20133;-80
2023/08/07 07:59:41;;;;;;;15.75;6.72;;;;;;;13.44;100.00;100820.72;6161083;23;20121;-80
2023/08/07 08:02:08;;;;;;;14.13;5.90;;;;;;;13.48;100.00;100806.25;6159286;23;20132;-80
2023/08/07 08:04:35;;;;;;;16.15;6.25;;;;;;;13.49;100.00;100813.16;6160292;23;20026;-79
2023/08/07 08:07:03;;;;;;;20.83;6.63;;;;;;;13.55;100.00;100830.06;6160675;23;20030;-79
2023/08/07 08:09:30;;;;;;;18.65;6.07;;;;;;;13.58;100.00;100827.09;6158163;23;20021;-80
2023/08/07 08:11:58;;;;;;;14.75;5.60;;;;;;;13.70;100.00;100836.25;6169727;23;20025;-81
2023/08/07 08:17:06;;;;;;;16.35;5.60;;;;;;;13.76;100.00;100845.22;6132434;23;20025;-78
2023/08/07 08:19:41;;;;;;;13.60;5.47;;;;;;;13.60;100.00;100825.94;6134931;23;20026;-80
2023/08/07 08:22:13;;;;;;;17.15;4.97;;;;;;;13.63;100.00;100834.47;6134162;23;20025;-79
2023/08/07 08:24:47;;;;;;;11.10;5.63;;;;;;;13.75;100.00;100838.31;6133140;23;20028;-79
2023/08/07 08:27:27;;;;;;;15.38;5.43;;;;;;;13.65;100.00;100833.31;6133262;23;20096;-79
2023/08/07 08:29:54;;;;;;;15.68;6.35;;;;;;;13.65;100.00;100833.31;6133180;23;20033;-79
2023/08/07 08:32:21;;;;;;;14.82;5.68;;;;;;;13.63;100.00;100830.03;6131879;23;20014;-79
2023/08/07 08:34:50;;;;;;;16.08;5.10;;;;;;;13.70;100.00;100832.78;6132830;23;20018;-80
2023/08/07 08:37:20;;;;;;;14.00;5.10;;;;;;;13.88;100.00;100838.59;6134080;23;20054;-81
2023/08/07 08:39:47;;;;;;;12.85;4.90;;;;;;;13.98;100.00;100862.88;6134928;23;20017;-81
2023/08/07 08:42:15;;;;;;;10.30;5.18;;;;;;;14.13;100.00;100862.97;6134393;23;20037;-81
2023/08/07 08:45:03;;;;;;;16.98;5.47;;;;;;;14.19;100.00;100857.81;6132927;23;20026;-80
2023/08/07 08:47:34;;;;;;;12.07;4.95;;;;;;;14.24;100.00;100858.13;6133660;23;20022;-80
2023/08/07 08:50:06;;;;;;;15.93;4.85;;;;;;;14.44;100.00;100844.53;6134701;23;20101;-81
2023/08/07 08:52:36;;;;;;;8.07;5.03;;;;;;;14.43;100.00;100864.78;6135712;23;20018;-81
2023/08/07 08:55:04;;;;;;;11.70;5.20;;;;;;;14.71;100.00;100874.75;6134863;23;20105;-81
2023/08/07 08:57:31;;;;;;;11.18;4.88;;;;;;;14.88;100.00;100874.47;6133947;23;20022;-80
2023/08/07 09:00:06;;;;;;;15.80;5.60;;;;;;;14.91;100.00;100865.38;6135508;23;20030;-81
2023/08/07 09:02:35;;;;;;;13.25;4.38;;;;;;;15.09;100.00;100870.34;6135178;23;20413;-81
2023/08/07 09:05:02;;;;;;;17.00;4.88;;;;;;;15.26;100.00;100867.34;6135227;23;20032;-80
2023/08/07 09:07:29;;;;;;;10.77;4.85;;;;;;;15.27;100.00;100847.88;6135333;23;20393;-80
2023/08/07 09:10:00;;;;;;;12.98;4.80;;;;;;;15.31;98.60;100863.34;6136744;23;20436;-80
2023/08/07 09:12:32;;;;;;;12.00;4.60;;;;;;;15.16;98.46;100879.13;6137094;23;20088;-81
2023/08/07 09:15:04;;;;;;;13.45;4.78;;;;;;;15.10;99.04;100859.63;6141486;23;20041;-81
2023/08/07 09:17:34;;;;;;;11.48;4.68;;;;;;;15.20;99.34;100889.16;6170618;23;20013;-81
2023/08/07 09:20:06;;;;;;;12.40;4.63;;;;;;;15.33;99.40;100888.53;6169851;23;20049;-81
2023/08/07 09:22:33;;;;;;;13.95;4.40;;;;;;;15.69;99.15;100893.09;6170708;23;20286;-81
2023/08/07 09:25:00;;;;;;;15.57;5.50;;;;;;;15.60;97.92;100884.47;6168401;23;20027;-81
2023/08/07 09:27:26;;;;;;;7.97;4.28;;;;;;;15.82;97.61;100899.38;6170219;23;20032;-80
2023/08/07 09:29:56;;;;;;;14.23;4.70;;;;;;;15.65;96.44;100894.47;6170818;23;20025;-79
2023/08/07 09:32:27;;;;;;;12.68;4.55;;;;;;;16.08;96.02;100900.69;6166496;23;20040;-80
2023/08/07 09:34:55;;;;;;;9.35;4.28;;;;;;;16.49;94.83;100906.25;6176152;23;20505;-79
2023/08/07 09:37:24;;;;;;;9.65;4.68;;;;;;;16.45;93.96;100904.97;6176325;23;20022;-80
2023/08/07 09:39:52;;;;;;;10.68;4.20;;;;;;;16.42;94.46;100902.72;6170925;23;20326;-81
2023/08/07 09:42:18;;;;;;;11.60;4.07;;;;;;;16.37;94.15;100900.63;6167037;23;20044;-80
2023/08/07 09:44:46;;;;;;;12.73;4.15;;;;;;;16.12;93.30;100905.41;6170381;23;20025;-81
2023/08/07 09:47:14;;;;;;;7.90;3.72;;;;;;;16.34;92.79;100898.38;6172245;23;20032;-80
2023/08/07 09:49:42;;;;;;;7.72;3.72;;;;;;;16.26;92.27;100896.66;6171253;23;20028;-80
2023/08/07 09:52:10;;;;;;;9.98;3.90;;;;;;;16.43;91.58;100904.34;6171105;23;20025;-80
2023/08/07 09:54:38;;;;;;;8.90;3.88;;;;;;;16.78;89.49;100884.19;6171301;23;20026;-79
2023/08/07 09:57:05;;;;;;;10.00;3.70;;;;;;;16.54;88.48;100901.22;6170043;23;20026;-80
2023/08/07 10:00:08;;;;;;;9.13;3.83;;;;;;;16.80;87.92;100882.16;6162234;23;20025;-81
2023/08/07 10:02:51;;;;;;;7.70;3.40;;;;;;;16.91;86.49;100884.28;6141398;23;20022;-81
2023/08/07 10:05:38;;;;;;;10.38;3.58;;;;;;;17.03;85.27;100889.84;6165432;23;20109;-81
2023/08/07 10:08:17;;;;;;;8.60;3.80;;;;;;;17.32;84.82;100894.97;6168172;23;20036;-80
2023/08/07 10:10:51;;;;;;;9.55;4.20;;;;;;;17.25;84.54;100876.41;6163031;23;20340;-81
2023/08/07 10:13:19;;;;;;;10.40;3.85;;;;;;;17.35;84.59;100897.22;6163291;23;20370;-82
2023/08/07 10:15:50;;;;;;;11.40;4.03;;;;;;;17.86;84.41;100883.69;6162919;23;20021;-78
2023/08/07 10:18:17;;;;;;;12.15;4.00;;;;;;;18.19;82.49;100889.91;6164360;23;20018;-79
2023/08/07 10:20:45;;;;;;;9.43;4.03;;;;;;;18.50;80.20;100877.94;6163479;23;20026;-79
2023/08/07 10:23:14;;;;;;;12.60;4.95;;;;;;;18.50;80.10;100875.28;6163924;23;20342;-81
2023/08/07 10:25:45;;;;;;;9.10;3.72;;;;;;;18.10;80.72;100888.44;6165015;23;20057;-81
2023/08/07 10:28:16;;;;;;;7.63;3.78;;;;;;;18.32;78.14;100864.47;6163747;23;20025;-80
2023/08/07 10:30:43;;;;;;;10.63;3.63;;;;;;;18.90;77.49;100865.56;6164929;23;20026;-81
2023/08/07 10:33:12;;;;;;;8.85;3.40;;;;;;;18.32;74.93;100867.13;6164642;23;20110;-80
2023/08/07 10:35:47;;;;;;;10.68;4.22;;;;;;;18.52;74.77;100852.06;6165060;23;20009;-81
2023/08/07 10:38:16;;;;;;;11.25;4.20;;;;;;;18.84;75.83;100867.19;6164430;23;20030;-80
2023/08/07 10:41:02;;;;;;;7.57;3.35;;;;;;;19.03;74.17;100872.69;6163275;23;20029;-79
2023/08/07 10:43:29;;;;;;;9.52;3.17;;;;;;;19.45;74.22;100866.06;6165289;23;20025;-81
2023/08/07 10:46:03;;;;;;;6.90;3.40;;;;;;;19.69;71.33;100861.94;6165832;23;20354;-81
2023/08/07 10:48:30;;;;;;;7.88;2.85;;;;;;;19.34;72.01;100862.25;6163983;23;20402;-80
2023/08/07 10:51:03;;;;;;;10.98;3.75;;;;;;;18.83;72.30;100873.53;6162878;23;20025;-81
2023/08/07 10:53:32;;;;;;;10.15;3.35;;;;;;;18.17;74.36;100886.63;6135193;23;20022;-80
2023/08/07 10:55:59;;;;;;;7.88;3.33;;;;;;;17.84;75.80;100888.34;6162934;23;20054;-81
2023/08/07 10:58:27;;;;;;;7.82;3.80;;;;;;;17.80;75.96;100889.75;6162761;23;20017;-80
2023/08/07 11:01:20;;;;;;;9.65;3.78;;;;;;;18.18;74.12;100877.66;6165751;23;20025;-81
2023/08/07 11:03:50;;;;;;;9.77;3.60;;;;;;;18.61;74.09;100893.28;6164590;23;20021;-79
2023/08/07 11:06:18;;;;;;;11.32;4.00;;;;;;;18.46;71.84;100869.56;6163179;23;20049;-80
2023/08/07 11:08:45;;;;;;;9.05;3.45;;;;;;;18.60;70.39;100872.25;6164029;23;20025;-80
2023/08/07 11:11:12;;;;;;;7.43;3.40;;;;;;;18.74;70.41;100863.31;6164210;23;20081;-79
2023/08/07 11:13:40;;;;;;;6.60;3.70;;;;;;;19.05;71.24;100889.19;6165987;23;20021;-80
2023/08/07 11:16:08;;;;;;;7.15;3.38;;;;;;;19.15;70.37;100857.78;6168334;23;20426;-79
2023/08/07 11:18:40;;;;;;;8.30;3.13;;;;;;;18.82;70.15;100865.78;6163443;23;20046;-80